sensor_id;sensor_type;location;lat;lon;timestamp;P1;durP1;ratioP1;P2;durP2;ratioP2
18336;SDS011;9294;51.106;7.028;2023-12-22T00:01:00;1.90;;;1.38;;
18336;SDS011;9294;51.106;7.028;2023-12-22T00:03:27;1.23;;;1.23;;
18336;SDS011;9294;51.106;7.028;2023-12-22T00:05:53;1.58;;;1.45;;
18336;SDS011;9294;51.106;7.028;2023-12-22T00:08:21;7.18;;;1.90;;
18336;SDS011;9294;51.106;7.028;2023-12-22T00:10:48;1.50;;;1.40;;
18336;SDS011;9294;51.106;7.028;2023-12-22T00:13:15;2.42;;;1.50;;
18336;SDS011;9294;51.106;7.028;2023-12-22T00:15:42;1.33;;;1.20;;
18336;SDS011;9294;51.106;7.028;2023-12-22T00:18:09;1.35;;;1.10;;
18336;SDS011;9294;51.106;7.028;2023-12-22T00:20:35;1.55;;;1.30;;
18336;SDS011;9294;51.106;7.028;2023-12-22T00:23:02;1.30;;;1.20;;
18336;SDS011;9294;51.106;7.028;2023-12-22T00:25:30;1.58;;;1.48;;
18336;SDS011;9294;51.106;7.028;2023-12-22T00:27:57;1.40;;;1.30;;
18336;SDS011;9294;51.106;7.028;2023-12-22T00:30:23;1.60;;;1.50;;
18336;SDS011;9294;51.106;7.028;2023-12-22T00:32:50;1.17;;;1.17;;
18336;SDS011;9294;51.106;7.028;2023-12-22T00:35:17;1.83;;;1.60;;
18336;SDS011;9294;51.106;7.028;2023-12-22T00:37:43;1.13;;;1.02;;
18336;SDS011;9294;51.106;7.028;2023-12-22T00:40:10;1.40;;;1.30;;
18336;SDS011;9294;51.106;7.028;2023-12-22T00:42:38;1.30;;;1.25;;
18336;SDS011;9294;51.106;7.028;2023-12-22T00:45:05;1.75;;;1.60;;
18336;SDS011;9294;51.106;7.028;2023-12-22T00:47:32;1.75;;;1.30;;
18336;SDS011;9294;51.106;7.028;2023-12-22T00:50:00;1.33;;;1.33;;
18336;SDS011;9294;51.106;7.028;2023-12-22T00:52:27;1.85;;;1.20;;
18336;SDS011;9294;51.106;7.028;2023-12-22T00:54:54;1.85;;;1.40;;
18336;SDS011;9294;51.106;7.028;2023-12-22T00:57:21;1.25;;;1.25;;
18336;SDS011;9294;51.106;7.028;2023-12-22T00:59:49;1.23;;;1.20;;
18336;SDS011;9294;51.106;7.028;2023-12-22T01:02:16;1.55;;;1.45;;
18336;SDS011;9294;51.106;7.028;2023-12-22T01:04:43;1.95;;;0.90;;
18336;SDS011;9294;51.106;7.028;2023-12-22T01:07:09;1.48;;;1.38;;
18336;SDS011;9294;51.106;7.028;2023-12-22T01:09:37;0.95;;;0.95;;
18336;SDS011;9294;51.106;7.028;2023-12-22T01:12:04;1.23;;;1.10;;
18336;SDS011;9294;51.106;7.028;2023-12-22T01:14:32;1.08;;;1.00;;
18336;SDS011;9294;51.106;7.028;2023-12-22T01:17:00;1.02;;;1.02;;
18336;SDS011;9294;51.106;7.028;2023-12-22T01:19:26;1.00;;;1.00;;
18336;SDS011;9294;51.106;7.028;2023-12-22T01:21:53;1.10;;;1.10;;
18336;SDS011;9294;51.106;7.028;2023-12-22T01:24:20;0.90;;;0.90;;
18336;SDS011;9294;51.106;7.028;2023-12-22T01:26:47;1.20;;;1.17;;
18336;SDS011;9294;51.106;7.028;2023-12-22T01:29:13;1.25;;;1.15;;
18336;SDS011;9294;51.106;7.028;2023-12-22T01:31:40;1.33;;;1.23;;
18336;SDS011;9294;51.106;7.028;2023-12-22T01:34:08;2.13;;;1.20;;
18336;SDS011;9294;51.106;7.028;2023-12-22T01:36:34;1.13;;;1.02;;
18336;SDS011;9294;51.106;7.028;2023-12-22T01:39:01;0.80;;;0.80;;
18336;SDS011;9294;51.106;7.028;2023-12-22T01:41:29;1.10;;;1.08;;
18336;SDS011;9294;51.106;7.028;2023-12-22T01:43:55;1.38;;;1.30;;
18336;SDS011;9294;51.106;7.028;2023-12-22T01:46:22;0.90;;;0.90;;
18336;SDS011;9294;51.106;7.028;2023-12-22T01:48:49;0.80;;;0.80;;
18336;SDS011;9294;51.106;7.028;2023-12-22T01:51:17;1.95;;;1.13;;
18336;SDS011;9294;51.106;7.028;2023-12-22T01:53:44;1.33;;;1.23;;
18336;SDS011;9294;51.106;7.028;2023-12-22T01:56:12;1.10;;;1.10;;
18336;SDS011;9294;51.106;7.028;2023-12-22T01:58:39;0.98;;;0.98;;
18336;SDS011;9294;51.106;7.028;2023-12-22T02:01:06;1.58;;;1.35;;
18336;SDS011;9294;51.106;7.028;2023-12-22T02:03:32;1.30;;;1.08;;
18336;SDS011;9294;51.106;7.028;2023-12-22T02:05:59;0.70;;;0.70;;
18336;SDS011;9294;51.106;7.028;2023-12-22T02:08:27;2.17;;;1.67;;
18336;SDS011;9294;51.106;7.028;2023-12-22T02:10:58;0.85;;;0.85;;
18336;SDS011;9294;51.106;7.028;2023-12-22T02:13:24;1.08;;;1.08;;
18336;SDS011;9294;51.106;7.028;2023-12-22T02:15:52;1.27;;;1.10;;
18336;SDS011;9294;51.106;7.028;2023-12-22T02:18:26;0.80;;;0.80;;
18336;SDS011;9294;51.106;7.028;2023-12-22T02:20:59;1.17;;;1.17;;
18336;SDS011;9294;51.106;7.028;2023-12-22T02:23:27;1.33;;;1.25;;
18336;SDS011;9294;51.106;7.028;2023-12-22T02:25:55;0.98;;;0.98;;
18336;SDS011;9294;51.106;7.028;2023-12-22T02:28:29;1.20;;;1.10;;
18336;SDS011;9294;51.106;7.028;2023-12-22T02:31:00;1.17;;;1.08;;
18336;SDS011;9294;51.106;7.028;2023-12-22T02:33:32;1.40;;;1.10;;
18336;SDS011;9294;51.106;7.028;2023-12-22T02:36:02;1.30;;;1.30;;
18336;SDS011;9294;51.106;7.028;2023-12-22T02:38:31;1.10;;;0.93;;
18336;SDS011;9294;51.106;7.028;2023-12-22T02:41:00;1.17;;;1.10;;
18336;SDS011;9294;51.106;7.028;2023-12-22T02:43:27;1.38;;;1.00;;
18336;SDS011;9294;51.106;7.028;2023-12-22T02:45:54;1.15;;;1.15;;
18336;SDS011;9294;51.106;7.028;2023-12-22T02:48:21;1.20;;;1.17;;
18336;SDS011;9294;51.106;7.028;2023-12-22T02:50:47;1.10;;;1.08;;
18336;SDS011;9294;51.106;7.028;2023-12-22T02:53:14;1.02;;;1.00;;
18336;SDS011;9294;51.106;7.028;2023-12-22T02:55:42;2.10;;;1.38;;
18336;SDS011;9294;51.106;7.028;2023-12-22T02:58:09;0.70;;;0.70;;
18336;SDS011;9294;51.106;7.028;2023-12-22T03:00:35;1.00;;;1.00;;
18336;SDS011;9294;51.106;7.028;2023-12-22T03:03:02;1.33;;;0.90;;
18336;SDS011;9294;51.106;7.028;2023-12-22T03:05:29;0.90;;;0.90;;
18336;SDS011;9294;51.106;7.028;2023-12-22T03:07:56;1.52;;;1.10;;
18336;SDS011;9294;51.106;7.028;2023-12-22T03:10:22;2.17;;;1.30;;
18336;SDS011;9294;51.106;7.028;2023-12-22T03:12:50;2.08;;;1.15;;
18336;SDS011;9294;51.106;7.028;2023-12-22T03:15:17;1.08;;;1.08;;
18336;SDS011;9294;51.106;7.028;2023-12-22T03:17:44;1.00;;;1.00;;
18336;SDS011;9294;51.106;7.028;2023-12-22T03:20:10;1.00;;;1.00;;
18336;SDS011;9294;51.106;7.028;2023-12-22T03:22:37;0.73;;;0.70;;
18336;SDS011;9294;51.106;7.028;2023-12-22T03:25:04;1.02;;;0.70;;
18336;SDS011;9294;51.106;7.028;2023-12-22T03:27:31;0.70;;;0.70;;
18336;SDS011;9294;51.106;7.028;2023-12-22T03:29:59;1.25;;;1.15;;
18336;SDS011;9294;51.106;7.028;2023-12-22T03:32:26;1.00;;;1.00;;
18336;SDS011;9294;51.106;7.028;2023-12-22T03:34:53;0.93;;;0.93;;
18336;SDS011;9294;51.106;7.028;2023-12-22T03:37:20;0.90;;;0.90;;
18336;SDS011;9294;51.106;7.028;2023-12-22T03:39:46;1.15;;;1.10;;
18336;SDS011;9294;51.106;7.028;2023-12-22T03:42:13;0.90;;;0.90;;
18336;SDS011;9294;51.106;7.028;2023-12-22T03:44:40;0.93;;;0.93;;
18336;SDS011;9294;51.106;7.028;2023-12-22T03:47:08;1.10;;;1.10;;
18336;SDS011;9294;51.106;7.028;2023-12-22T03:49:34;0.82;;;0.82;;
18336;SDS011;9294;51.106;7.028;2023-12-22T03:52:01;1.55;;;0.98;;
18336;SDS011;9294;51.106;7.028;2023-12-22T03:54:28;1.10;;;1.00;;
18336;SDS011;9294;51.106;7.028;2023-12-22T03:56:54;0.82;;;0.82;;
18336;SDS011;9294;51.106;7.028;2023-12-22T03:59:21;1.38;;;1.17;;
18336;SDS011;9294;51.106;7.028;2023-12-22T04:01:50;0.93;;;0.90;;
18336;SDS011;9294;51.106;7.028;2023-12-22T04:04:19;1.02;;;0.90;;
18336;SDS011;9294;51.106;7.028;2023-12-22T04:06:47;1.05;;;0.90;;
18336;SDS011;9294;51.106;7.028;2023-12-22T04:09:13;0.93;;;0.93;;
18336;SDS011;9294;51.106;7.028;2023-12-22T04:11:40;0.98;;;0.90;;
18336;SDS011;9294;51.106;7.028;2023-12-22T04:14:07;0.85;;;0.85;;
18336;SDS011;9294;51.106;7.028;2023-12-22T04:16:35;0.90;;;0.90;;
18336;SDS011;9294;51.106;7.028;2023-12-22T04:19:03;1.88;;;1.10;;
18336;SDS011;9294;51.106;7.028;2023-12-22T04:21:31;0.80;;;0.80;;
18336;SDS011;9294;51.106;7.028;2023-12-22T04:23:57;1.00;;;1.00;;
18336;SDS011;9294;51.106;7.028;2023-12-22T04:26:24;1.40;;;1.20;;
18336;SDS011;9294;51.106;7.028;2023-12-22T04:28:50;0.70;;;0.70;;
18336;SDS011;9294;51.106;7.028;2023-12-22T04:31:17;0.70;;;0.70;;
18336;SDS011;9294;51.106;7.028;2023-12-22T04:33:44;1.33;;;0.82;;
18336;SDS011;9294;51.106;7.028;2023-12-22T04:36:10;0.90;;;0.90;;
18336;SDS011;9294;51.106;7.028;2023-12-22T04:38:38;1.08;;;0.90;;
18336;SDS011;9294;51.106;7.028;2023-12-22T04:41:06;0.73;;;0.73;;
18336;SDS011;9294;51.106;7.028;2023-12-22T04:43:32;0.80;;;0.80;;
18336;SDS011;9294;51.106;7.028;2023-12-22T04:45:59;1.13;;;1.13;;
18336;SDS011;9294;51.106;7.028;2023-12-22T04:48:26;1.38;;;0.90;;
18336;SDS011;9294;51.106;7.028;2023-12-22T04:50:52;0.82;;;0.82;;
18336;SDS011;9294;51.106;7.028;2023-12-22T04:53:19;0.90;;;0.90;;
18336;SDS011;9294;51.106;7.028;2023-12-22T04:55:47;0.60;;;0.60;;
18336;SDS011;9294;51.106;7.028;2023-12-22T04:58:14;0.77;;;0.77;;
18336;SDS011;9294;51.106;7.028;2023-12-22T05:00:40;1.30;;;1.20;;
18336;SDS011;9294;51.106;7.028;2023-12-22T05:03:07;0.77;;;0.77;;
18336;SDS011;9294;51.106;7.028;2023-12-22T05:05:34;0.95;;;0.90;;
18336;SDS011;9294;51.106;7.028;2023-12-22T05:08:00;0.80;;;0.80;;
18336;SDS011;9294;51.106;7.028;2023-12-22T05:10:27;0.63;;;0.63;;
18336;SDS011;9294;51.106;7.028;2023-12-22T05:12:55;1.02;;;1.02;;
18336;SDS011;9294;51.106;7.028;2023-12-22T05:15:22;0.50;;;0.50;;
18336;SDS011;9294;51.106;7.028;2023-12-22T05:17:49;0.77;;;0.77;;
18336;SDS011;9294;51.106;7.028;2023-12-22T05:20:15;0.70;;;0.70;;
18336;SDS011;9294;51.106;7.028;2023-12-22T05:22:42;1.20;;;0.90;;
18336;SDS011;9294;51.106;7.028;2023-12-22T05:25:09;0.88;;;0.88;;
18336;SDS011;9294;51.106;7.028;2023-12-22T05:27:36;0.70;;;0.70;;
18336;SDS011;9294;51.106;7.028;2023-12-22T05:30:04;1.20;;;1.10;;
18336;SDS011;9294;51.106;7.028;2023-12-22T05:32:32;0.90;;;0.90;;
18336;SDS011;9294;51.106;7.028;2023-12-22T05:34:58;0.77;;;0.77;;
18336;SDS011;9294;51.106;7.028;2023-12-22T05:37:25;1.15;;;1.10;;
18336;SDS011;9294;51.106;7.028;2023-12-22T05:39:52;0.80;;;0.80;;
18336;SDS011;9294;51.106;7.028;2023-12-22T05:42:18;0.80;;;0.80;;
18336;SDS011;9294;51.106;7.028;2023-12-22T05:44:45;0.75;;;0.70;;
18336;SDS011;9294;51.106;7.028;2023-12-22T05:47:16;0.90;;;0.90;;
18336;SDS011;9294;51.106;7.028;2023-12-22T05:49:43;0.73;;;0.60;;
18336;SDS011;9294;51.106;7.028;2023-12-22T05:52:09;0.60;;;0.60;;
18336;SDS011;9294;51.106;7.028;2023-12-22T05:54:37;0.65;;;0.65;;
18336;SDS011;9294;51.106;7.028;2023-12-22T05:57:04;0.90;;;0.85;;
18336;SDS011;9294;51.106;7.028;2023-12-22T05:59:32;0.75;;;0.73;;
18336;SDS011;9294;51.106;7.028;2023-12-22T06:01:59;1.20;;;1.10;;
18336;SDS011;9294;51.106;7.028;2023-12-22T06:04:27;0.90;;;0.90;;
18336;SDS011;9294;51.106;7.028;2023-12-22T06:06:54;0.80;;;0.80;;
18336;SDS011;9294;51.106;7.028;2023-12-22T06:09:21;1.10;;;1.10;;
18336;SDS011;9294;51.106;7.028;2023-12-22T06:11:47;1.38;;;0.90;;
18336;SDS011;9294;51.106;7.028;2023-12-22T06:14:14;0.85;;;0.85;;
18336;SDS011;9294;51.106;7.028;2023-12-22T06:16:41;0.85;;;0.85;;
18336;SDS011;9294;51.106;7.028;2023-12-22T06:19:08;1.67;;;1.10;;
18336;SDS011;9294;51.106;7.028;2023-12-22T06:21:38;1.05;;;1.00;;
18336;SDS011;9294;51.106;7.028;2023-12-22T06:24:06;0.88;;;0.88;;
18336;SDS011;9294;51.106;7.028;2023-12-22T06:26:33;1.55;;;1.45;;
18336;SDS011;9294;51.106;7.028;2023-12-22T06:29:00;0.90;;;0.90;;
18336;SDS011;9294;51.106;7.028;2023-12-22T06:31:28;1.73;;;0.80;;
18336;SDS011;9294;51.106;7.028;2023-12-22T06:33:55;0.80;;;0.80;;
18336;SDS011;9294;51.106;7.028;2023-12-22T06:36:25;0.82;;;0.82;;
18336;SDS011;9294;51.106;7.028;2023-12-22T06:38:53;0.82;;;0.80;;
18336;SDS011;9294;51.106;7.028;2023-12-22T06:41:20;6.20;;;1.58;;
18336;SDS011;9294;51.106;7.028;2023-12-22T06:43:48;4.82;;;1.30;;
18336;SDS011;9294;51.106;7.028;2023-12-22T06:46:16;2.55;;;1.23;;
18336;SDS011;9294;51.106;7.028;2023-12-22T06:48:42;3.85;;;1.23;;
18336;SDS011;9294;51.106;7.028;2023-12-22T06:51:16;2.67;;;1.30;;
18336;SDS011;9294;51.106;7.028;2023-12-22T06:53:43;4.43;;;1.33;;
18336;SDS011;9294;51.106;7.028;2023-12-22T06:56:15;2.75;;;1.25;;
18336;SDS011;9294;51.106;7.028;2023-12-22T06:58:43;4.22;;;1.30;;
18336;SDS011;9294;51.106;7.028;2023-12-22T07:01:11;3.08;;;1.60;;
18336;SDS011;9294;51.106;7.028;2023-12-22T07:03:38;3.47;;;1.42;;
18336;SDS011;9294;51.106;7.028;2023-12-22T07:06:04;2.40;;;1.08;;
18336;SDS011;9294;51.106;7.028;2023-12-22T07:08:31;1.33;;;1.20;;
18336;SDS011;9294;51.106;7.028;2023-12-22T07:10:58;2.55;;;1.35;;
18336;SDS011;9294;51.106;7.028;2023-12-22T07:13:26;2.30;;;1.48;;
18336;SDS011;9294;51.106;7.028;2023-12-22T07:15:53;2.20;;;1.65;;
18336;SDS011;9294;51.106;7.028;2023-12-22T07:18:19;3.08;;;1.95;;
18336;SDS011;9294;51.106;7.028;2023-12-22T07:20:46;1.75;;;1.65;;
18336;SDS011;9294;51.106;7.028;2023-12-22T07:23:13;1.92;;;1.75;;
18336;SDS011;9294;51.106;7.028;2023-12-22T07:25:40;1.85;;;1.75;;
18336;SDS011;9294;51.106;7.028;2023-12-22T07:28:07;2.60;;;2.00;;
18336;SDS011;9294;51.106;7.028;2023-12-22T07:30:35;2.28;;;2.08;;
18336;SDS011;9294;51.106;7.028;2023-12-22T07:33:02;2.50;;;2.30;;
18336;SDS011;9294;51.106;7.028;2023-12-22T07:35:29;1.88;;;1.77;;
18336;SDS011;9294;51.106;7.028;2023-12-22T07:37:55;3.65;;;2.33;;
18336;SDS011;9294;51.106;7.028;2023-12-22T07:40:22;3.35;;;2.65;;
18336;SDS011;9294;51.106;7.028;2023-12-22T07:42:49;3.05;;;2.60;;
18336;SDS011;9294;51.106;7.028;2023-12-22T07:45:16;3.38;;;2.67;;
18336;SDS011;9294;51.106;7.028;2023-12-22T07:47:44;7.28;;;3.33;;
18336;SDS011;9294;51.106;7.028;2023-12-22T07:50:11;7.18;;;3.25;;
18336;SDS011;9294;51.106;7.028;2023-12-22T07:52:38;5.28;;;4.20;;
18336;SDS011;9294;51.106;7.028;2023-12-22T07:55:05;7.75;;;5.03;;
18336;SDS011;9294;51.106;7.028;2023-12-22T07:57:34;7.90;;;5.28;;
18336;SDS011;9294;51.106;7.028;2023-12-22T08:00:01;10.40;;;6.55;;
18336;SDS011;9294;51.106;7.028;2023-12-22T08:02:28;13.82;;;7.00;;
18336;SDS011;9294;51.106;7.028;2023-12-22T08:04:56;11.85;;;7.30;;
18336;SDS011;9294;51.106;7.028;2023-12-22T08:07:23;12.95;;;7.95;;
18336;SDS011;9294;51.106;7.028;2023-12-22T08:09:50;14.23;;;6.93;;
18336;SDS011;9294;51.106;7.028;2023-12-22T08:12:16;14.25;;;7.22;;
18336;SDS011;9294;51.106;7.028;2023-12-22T08:14:43;10.68;;;7.15;;
18336;SDS011;9294;51.106;7.028;2023-12-22T08:17:10;15.60;;;6.85;;
18336;SDS011;9294;51.106;7.028;2023-12-22T08:19:38;12.85;;;6.78;;
18336;SDS011;9294;51.106;7.028;2023-12-22T08:22:08;14.90;;;8.82;;
18336;SDS011;9294;51.106;7.028;2023-12-22T08:24:35;13.65;;;7.97;;
18336;SDS011;9294;51.106;7.028;2023-12-22T08:27:03;12.82;;;7.55;;
18336;SDS011;9294;51.106;7.028;2023-12-22T08:29:29;15.38;;;7.45;;
18336;SDS011;9294;51.106;7.028;2023-12-22T08:31:56;12.68;;;7.68;;
18336;SDS011;9294;51.106;7.028;2023-12-22T08:34:23;10.50;;;7.18;;
18336;SDS011;9294;51.106;7.028;2023-12-22T08:36:49;11.10;;;7.03;;
18336;SDS011;9294;51.106;7.028;2023-12-22T08:39:17;11.05;;;7.25;;
18336;SDS011;9294;51.106;7.028;2023-12-22T08:41:44;10.90;;;7.50;;
18336;SDS011;9294;51.106;7.028;2023-12-22T08:44:11;8.05;;;6.85;;
18336;SDS011;9294;51.106;7.028;2023-12-22T08:46:39;10.18;;;7.30;;
18336;SDS011;9294;51.106;7.028;2023-12-22T08:49:06;8.93;;;6.00;;
18336;SDS011;9294;51.106;7.028;2023-12-22T08:51:33;9.23;;;7.07;;
18336;SDS011;9294;51.106;7.028;2023-12-22T08:54:00;9.73;;;5.93;;
18336;SDS011;9294;51.106;7.028;2023-12-22T08:56:28;10.00;;;6.75;;
18336;SDS011;9294;51.106;7.028;2023-12-22T08:58:54;10.65;;;5.78;;
18336;SDS011;9294;51.106;7.028;2023-12-22T09:01:23;8.85;;;6.43;;
18336;SDS011;9294;51.106;7.028;2023-12-22T09:03:50;9.85;;;6.20;;
18336;SDS011;9294;51.106;7.028;2023-12-22T09:06:18;8.65;;;5.80;;
18336;SDS011;9294;51.106;7.028;2023-12-22T09:08:46;10.07;;;6.10;;
18336;SDS011;9294;51.106;7.028;2023-12-22T09:11:13;13.38;;;6.40;;
18336;SDS011;9294;51.106;7.028;2023-12-22T09:13:42;12.90;;;6.25;;
18336;SDS011;9294;51.106;7.028;2023-12-22T09:16:09;13.55;;;6.82;;
18336;SDS011;9294;51.106;7.028;2023-12-22T09:18:40;7.30;;;5.10;;
18336;SDS011;9294;51.106;7.028;2023-12-22T09:21:07;8.27;;;5.30;;
18336;SDS011;9294;51.106;7.028;2023-12-22T09:23:34;9.88;;;6.25;;
18336;SDS011;9294;51.106;7.028;2023-12-22T09:26:00;11.95;;;6.13;;
18336;SDS011;9294;51.106;7.028;2023-12-22T09:28:27;10.32;;;6.18;;
18336;SDS011;9294;51.106;7.028;2023-12-22T09:30:55;9.80;;;5.60;;
18336;SDS011;9294;51.106;7.028;2023-12-22T09:33:22;15.25;;;5.35;;
18336;SDS011;9294;51.106;7.028;2023-12-22T09:35:48;11.95;;;5.70;;
18336;SDS011;9294;51.106;7.028;2023-12-22T09:38:16;8.32;;;4.85;;
18336;SDS011;9294;51.106;7.028;2023-12-22T09:40:43;9.02;;;5.35;;
18336;SDS011;9294;51.106;7.028;2023-12-22T09:43:09;13.95;;;5.70;;
18336;SDS011;9294;51.106;7.028;2023-12-22T09:45:39;8.93;;;5.50;;
18336;SDS011;9294;51.106;7.028;2023-12-22T09:48:08;7.47;;;5.32;;
18336;SDS011;9294;51.106;7.028;2023-12-22T09:50:40;9.30;;;4.53;;
18336;SDS011;9294;51.106;7.028;2023-12-22T09:53:09;8.88;;;5.60;;
18336;SDS011;9294;51.106;7.028;2023-12-22T09:55:36;5.38;;;4.57;;
18336;SDS011;9294;51.106;7.028;2023-12-22T09:58:04;7.70;;;4.85;;
18336;SDS011;9294;51.106;7.028;2023-12-22T10:00:34;6.78;;;4.75;;
18336;SDS011;9294;51.106;7.028;2023-12-22T10:03:02;7.57;;;4.93;;
18336;SDS011;9294;51.106;7.028;2023-12-22T10:05:32;9.63;;;4.93;;
18336;SDS011;9294;51.106;7.028;2023-12-22T10:07:59;9.65;;;4.78;;
18336;SDS011;9294;51.106;7.028;2023-12-22T10:10:27;8.15;;;5.32;;
18336;SDS011;9294;51.106;7.028;2023-12-22T10:12:55;10.18;;;5.13;;
18336;SDS011;9294;51.106;7.028;2023-12-22T10:15:23;9.73;;;5.32;;
18336;SDS011;9294;51.106;7.028;2023-12-22T10:17:50;7.68;;;4.38;;
18336;SDS011;9294;51.106;7.028;2023-12-22T10:20:17;13.57;;;4.82;;
18336;SDS011;9294;51.106;7.028;2023-12-22T10:22:45;9.35;;;4.85;;
18336;SDS011;9294;51.106;7.028;2023-12-22T10:25:14;8.30;;;5.05;;
18336;SDS011;9294;51.106;7.028;2023-12-22T10:27:41;12.82;;;5.35;;
18336;SDS011;9294;51.106;7.028;2023-12-22T10:30:08;7.35;;;4.30;;
18336;SDS011;9294;51.106;7.028;2023-12-22T10:32:39;9.82;;;4.38;;
18336;SDS011;9294;51.106;7.028;2023-12-22T10:35:07;5.93;;;4.45;;
18336;SDS011;9294;51.106;7.028;2023-12-22T10:37:34;12.13;;;4.65;;
18336;SDS011;9294;51.106;7.028;2023-12-22T10:40:04;5.10;;;3.85;;
18336;SDS011;9294;51.106;7.028;2023-12-22T10:42:34;5.45;;;3.95;;
18336;SDS011;9294;51.106;7.028;2023-12-22T10:45:01;5.80;;;3.88;;
18336;SDS011;9294;51.106;7.028;2023-12-22T10:47:29;6.03;;;3.55;;
18336;SDS011;9294;51.106;7.028;2023-12-22T10:49:55;6.97;;;5.00;;
18336;SDS011;9294;51.106;7.028;2023-12-22T10:52:22;9.63;;;3.95;;
18336;SDS011;9294;51.106;7.028;2023-12-22T10:54:49;8.30;;;4.82;;
18336;SDS011;9294;51.106;7.028;2023-12-22T10:57:18;6.38;;;4.35;;
18336;SDS011;9294;51.106;7.028;2023-12-22T10:59:45;6.30;;;3.67;;
18336;SDS011;9294;51.106;7.028;2023-12-22T11:02:15;5.95;;;3.70;;
18336;SDS011;9294;51.106;7.028;2023-12-22T11:04:43;7.63;;;4.53;;
18336;SDS011;9294;51.106;7.028;2023-12-22T11:07:13;6.03;;;4.28;;
18336;SDS011;9294;51.106;7.028;2023-12-22T11:09:41;12.43;;;4.30;;
18336;SDS011;9294;51.106;7.028;2023-12-22T11:12:10;12.57;;;4.47;;
18336;SDS011;9294;51.106;7.028;2023-12-22T11:14:39;11.13;;;4.03;;
18336;SDS011;9294;51.106;7.028;2023-12-22T11:17:06;6.43;;;3.88;;
18336;SDS011;9294;51.106;7.028;2023-12-22T11:19:35;7.60;;;4.03;;
18336;SDS011;9294;51.106;7.028;2023-12-22T11:22:02;7.95;;;4.32;;
18336;SDS011;9294;51.106;7.028;2023-12-22T11:24:31;7.18;;;4.43;;
18336;SDS011;9294;51.106;7.028;2023-12-22T11:26:59;8.45;;;4.70;;
18336;SDS011;9294;51.106;7.028;2023-12-22T11:29:29;8.20;;;4.05;;
18336;SDS011;9294;51.106;7.028;2023-12-22T11:31:59;6.78;;;4.40;;
18336;SDS011;9294;51.106;7.028;2023-12-22T11:34:28;5.88;;;4.15;;
18336;SDS011;9294;51.106;7.028;2023-12-22T11:36:56;5.60;;;3.85;;
18336;SDS011;9294;51.106;7.028;2023-12-22T11:39:24;9.15;;;3.70;;
18336;SDS011;9294;51.106;7.028;2023-12-22T11:41:51;6.88;;;3.78;;
18336;SDS011;9294;51.106;7.028;2023-12-22T11:44:19;7.20;;;4.68;;
18336;SDS011;9294;51.106;7.028;2023-12-22T11:46:46;13.43;;;8.32;;
18336;SDS011;9294;51.106;7.028;2023-12-22T11:49:14;18.65;;;12.25;;
18336;SDS011;9294;51.106;7.028;2023-12-22T11:51:41;22.95;;;13.95;;
18336;SDS011;9294;51.106;7.028;2023-12-22T11:57:29;26.23;;;14.80;;
18336;SDS011;9294;51.106;7.028;2023-12-22T11:59:57;25.23;;;15.77;;
18336;SDS011;9294;51.106;7.028;2023-12-22T12:02:24;24.13;;;14.88;;
18336;SDS011;9294;51.106;7.028;2023-12-22T12:04:53;21.77;;;13.88;;
18336;SDS011;9294;51.106;7.028;2023-12-22T12:07:36;24.98;;;14.20;;
18336;SDS011;9294;51.106;7.028;2023-12-22T12:10:09;21.85;;;13.88;;
18336;SDS011;9294;51.106;7.028;2023-12-22T12:12:36;21.25;;;13.45;;
18336;SDS011;9294;51.106;7.028;2023-12-22T12:15:07;19.73;;;12.10;;
18336;SDS011;9294;51.106;7.028;2023-12-22T12:17:38;18.58;;;12.82;;
18336;SDS011;9294;51.106;7.028;2023-12-22T12:20:09;22.17;;;13.20;;
18336;SDS011;9294;51.106;7.028;2023-12-22T12:22:36;23.50;;;14.23;;
18336;SDS011;9294;51.106;7.028;2023-12-22T12:25:08;24.92;;;13.85;;
18336;SDS011;9294;51.106;7.028;2023-12-22T12:27:36;22.42;;;12.38;;
18336;SDS011;9294;51.106;7.028;2023-12-22T12:30:06;18.80;;;10.23;;
18336;SDS011;9294;51.106;7.028;2023-12-22T12:32:36;19.67;;;11.27;;
18336;SDS011;9294;51.106;7.028;2023-12-22T12:35:04;17.08;;;10.30;;
18336;SDS011;9294;51.106;7.028;2023-12-22T12:37:32;14.82;;;9.32;;
18336;SDS011;9294;51.106;7.028;2023-12-22T12:39:59;17.15;;;10.15;;
18336;SDS011;9294;51.106;7.028;2023-12-22T12:42:29;13.38;;;9.73;;
18336;SDS011;9294;51.106;7.028;2023-12-22T12:44:56;16.27;;;10.50;;
18336;SDS011;9294;51.106;7.028;2023-12-22T12:47:23;14.73;;;10.02;;
18336;SDS011;9294;51.106;7.028;2023-12-22T12:49:56;14.40;;;9.20;;
18336;SDS011;9294;51.106;7.028;2023-12-22T12:52:23;15.13;;;8.43;;
18336;SDS011;9294;51.106;7.028;2023-12-22T12:54:51;14.30;;;8.32;;
18336;SDS011;9294;51.106;7.028;2023-12-22T12:57:19;12.48;;;8.63;;
18336;SDS011;9294;51.106;7.028;2023-12-22T12:59:46;13.48;;;8.95;;
18336;SDS011;9294;51.106;7.028;2023-12-22T13:02:13;19.88;;;10.20;;
18336;SDS011;9294;51.106;7.028;2023-12-22T13:04:41;15.77;;;9.40;;
18336;SDS011;9294;51.106;7.028;2023-12-22T13:07:08;16.58;;;10.52;;
18336;SDS011;9294;51.106;7.028;2023-12-22T13:09:37;15.50;;;9.38;;
18336;SDS011;9294;51.106;7.028;2023-12-22T13:12:08;14.00;;;9.73;;
18336;SDS011;9294;51.106;7.028;2023-12-22T13:14:35;16.08;;;9.85;;
18336;SDS011;9294;51.106;7.028;2023-12-22T13:17:02;18.13;;;10.57;;
18336;SDS011;9294;51.106;7.028;2023-12-22T13:19:29;15.60;;;10.48;;
18336;SDS011;9294;51.106;7.028;2023-12-22T13:21:56;17.92;;;10.65;;
18336;SDS011;9294;51.106;7.028;2023-12-22T13:24:23;14.35;;;10.25;;
18336;SDS011;9294;51.106;7.028;2023-12-22T13:26:58;16.58;;;9.95;;
18336;SDS011;9294;51.106;7.028;2023-12-22T13:29:27;16.17;;;10.05;;
18336;SDS011;9294;51.106;7.028;2023-12-22T13:31:54;13.35;;;8.88;;
18336;SDS011;9294;51.106;7.028;2023-12-22T13:34:22;12.65;;;8.77;;
18336;SDS011;9294;51.106;7.028;2023-12-22T13:36:49;13.57;;;9.48;;
18336;SDS011;9294;51.106;7.028;2023-12-22T13:39:16;14.07;;;8.65;;
18336;SDS011;9294;51.106;7.028;2023-12-22T13:41:43;14.00;;;8.60;;
18336;SDS011;9294;51.106;7.028;2023-12-22T13:44:11;16.45;;;9.77;;
18336;SDS011;9294;51.106;7.028;2023-12-22T13:46:39;12.90;;;9.23;;
18336;SDS011;9294;51.106;7.028;2023-12-22T13:49:07;11.48;;;8.25;;
18336;SDS011;9294;51.106;7.028;2023-12-22T13:51:38;14.10;;;8.55;;
18336;SDS011;9294;51.106;7.028;2023-12-22T13:54:08;13.20;;;9.05;;
18336;SDS011;9294;51.106;7.028;2023-12-22T13:56:35;14.45;;;9.13;;
18336;SDS011;9294;51.106;7.028;2023-12-22T13:59:02;11.60;;;8.15;;
18336;SDS011;9294;51.106;7.028;2023-12-22T14:01:29;11.70;;;7.60;;
18336;SDS011;9294;51.106;7.028;2023-12-22T14:03:57;11.95;;;7.53;;
18336;SDS011;9294;51.106;7.028;2023-12-22T14:06:24;11.70;;;6.95;;
18336;SDS011;9294;51.106;7.028;2023-12-22T14:08:51;8.18;;;6.85;;
18336;SDS011;9294;51.106;7.028;2023-12-22T14:11:18;7.93;;;5.60;;
18336;SDS011;9294;51.106;7.028;2023-12-22T14:13:46;10.00;;;6.05;;
18336;SDS011;9294;51.106;7.028;2023-12-22T14:16:12;8.82;;;5.45;;
18336;SDS011;9294;51.106;7.028;2023-12-22T14:18:40;10.40;;;6.38;;
18336;SDS011;9294;51.106;7.028;2023-12-22T14:21:08;9.20;;;6.00;;
18336;SDS011;9294;51.106;7.028;2023-12-22T14:23:34;9.05;;;6.18;;
18336;SDS011;9294;51.106;7.028;2023-12-22T14:26:01;7.72;;;4.97;;
18336;SDS011;9294;51.106;7.028;2023-12-22T14:28:28;7.20;;;5.00;;
18336;SDS011;9294;51.106;7.028;2023-12-22T14:30:55;8.27;;;4.88;;
18336;SDS011;9294;51.106;7.028;2023-12-22T14:33:21;10.60;;;5.22;;
18336;SDS011;9294;51.106;7.028;2023-12-22T14:35:48;6.82;;;4.50;;
18336;SDS011;9294;51.106;7.028;2023-12-22T14:38:16;4.65;;;3.97;;
18336;SDS011;9294;51.106;7.028;2023-12-22T14:40:43;8.00;;;4.35;;
18336;SDS011;9294;51.106;7.028;2023-12-22T14:43:09;11.05;;;4.97;;
18336;SDS011;9294;51.106;7.028;2023-12-22T14:45:36;7.05;;;5.03;;
18336;SDS011;9294;51.106;7.028;2023-12-22T14:48:03;15.20;;;4.93;;
18336;SDS011;9294;51.106;7.028;2023-12-22T14:50:30;7.45;;;4.45;;
18336;SDS011;9294;51.106;7.028;2023-12-22T14:52:57;7.55;;;4.85;;
18336;SDS011;9294;51.106;7.028;2023-12-22T14:55:25;10.40;;;4.25;;
18336;SDS011;9294;51.106;7.028;2023-12-22T14:57:52;6.82;;;3.58;;
18336;SDS011;9294;51.106;7.028;2023-12-22T15:00:19;10.82;;;4.32;;